Time;durP1;ratioP1;P1;durP2;ratioP2;P2;SDS_P1;SDS_P2;PMS_P1;PMS_P2;Temp;Humidity;BMP_temperature;BMP_pressure;BME280_temperature;BME280_humidity;BME280_pressure;Samples;Min_cycle;Max_cycle;Signal;HPM_P1;HPM_P2
2024/02/24 00:01:49;;;;;;;3.17;1.30;;;8.10;99.90;;;;;;5051770;28;20029;-76
2024/02/24 00:04:15;;;;;;;3.40;1.48;;;8.10;99.90;;;;;;5053121;28;20063;-76
2024/02/24 00:06:41;;;;;;;3.33;1.13;;;8.10;99.90;;;;;;5053327;28;20466;-75
2024/02/24 00:09:07;;;;;;;1.95;0.98;;;8.00;99.90;;;;;;5033601;28;20025;-75
2024/02/24 00:11:33;;;;;;;1.95;1.00;;;7.90;99.90;;;;;;5044801;28;20063;-75
2024/02/24 00:13:58;;;;;;;3.13;1.10;;;7.90;99.90;;;;;;5053107;28;20378;-76
2024/02/24 00:16:24;;;;;;;3.20;0.88;;;7.90;99.90;;;;;;5052981;28;20032;-74
2024/02/24 00:18:50;;;;;;;2.40;1.20;;;8.00;99.90;;;;;;5047954;28;20022;-75
2024/02/24 00:21:16;;;;;;;4.60;1.55;;;8.10;99.90;;;;;;5031622;28;20036;-75
2024/02/24 00:23:41;;;;;;;2.60;0.98;;;8.00;99.90;;;;;;5049371;28;20108;-76
2024/02/24 00:26:07;;;;;;;1.60;1.00;;;7.90;99.90;;;;;;5052554;28;20068;-75
2024/02/24 00:28:32;;;;;;;2.40;0.95;;;7.90;99.90;;;;;;5052902;28;20028;-75
2024/02/24 00:30:58;;;;;;;2.08;0.88;;;7.80;99.90;;;;;;5043567;28;20462;-75
2024/02/24 00:33:24;;;;;;;2.13;0.73;;;7.80;99.90;;;;;;5044576;28;20025;-75
2024/02/24 00:35:49;;;;;;;2.50;0.80;;;7.90;99.90;;;;;;5046243;28;20032;-76
2024/02/24 00:38:15;;;;;;;1.85;0.82;;;7.90;99.90;;;;;;5052767;28;20021;-76
2024/02/24 00:40:41;;;;;;;2.10;0.90;;;7.90;99.90;;;;;;5052757;28;20029;-74
2024/02/24 00:43:07;;;;;;;1.92;0.93;;;7.90;99.90;;;;;;5039329;28;20446;-75
2024/02/24 00:45:32;;;;;;;1.85;0.73;;;7.90;99.90;;;;;;5044743;28;20060;-76
2024/02/24 00:47:58;;;;;;;1.90;0.80;;;7.80;99.90;;;;;;5050832;28;20025;-76
2024/02/24 00:50:28;;;;;;;2.28;0.68;;;7.80;99.90;;;;;;5052748;28;20514;-75
2024/02/24 00:52:57;;;;;;;3.80;1.23;;;7.70;99.90;;;;;;5052526;28;20013;-76
2024/02/24 00:55:23;;;;;;;1.35;0.90;;;7.70;99.90;;;;;;5040163;28;20029;-76
2024/02/24 00:57:49;;;;;;;1.73;1.00;;;7.70;99.90;;;;;;5037918;28;20024;-75
2024/02/24 01:00:17;;;;;;;2.85;1.33;;;7.70;99.90;;;;;;5050779;28;20079;-75
2024/02/24 01:02:43;;;;;;;2.13;0.93;;;7.80;99.90;;;;;;5049105;28;20037;-75
2024/02/24 01:05:09;;;;;;;1.60;1.10;;;7.70;99.90;;;;;;5050621;28;20072;-76
2024/02/24 01:07:35;;;;;;;3.35;1.20;;;7.70;99.90;;;;;;5038448;28;20104;-73
2024/02/24 01:10:01;;;;;;;2.13;1.10;;;7.80;99.90;;;;;;5052126;28;20131;-73
2024/02/24 01:12:27;;;;;;;2.42;1.10;;;7.80;99.90;;;;;;5039089;28;20170;-76
2024/02/24 01:14:53;;;;;;;1.90;1.17;;;7.80;99.90;;;;;;5052347;28;20021;-73
2024/02/24 01:17:20;;;;;;;4.07;1.40;;;7.80;99.90;;;;;;5040618;28;20017;-75
2024/02/24 01:19:45;;;;;;;1.67;1.23;;;7.80;99.90;;;;;;5052013;28;20025;-74
2024/02/24 01:22:16;;;;;;;1.63;1.50;;;7.80;99.90;;;;;;5052121;28;20481;-76
2024/02/24 01:24:45;;;;;;;1.60;1.30;;;7.90;99.90;;;;;;5043620;28;20125;-75
2024/02/24 01:27:11;;;;;;;2.15;1.25;;;7.90;99.90;;;;;;5049173;28;20036;-76
2024/02/24 01:29:37;;;;;;;2.05;1.10;;;7.80;99.90;;;;;;5051310;28;20025;-76
2024/02/24 01:32:03;;;;;;;1.38;0.90;;;7.70;99.90;;;;;;5048998;28;20116;-74
2024/02/24 01:34:29;;;;;;;2.25;1.23;;;7.60;99.90;;;;;;5049984;28;20104;-76
2024/02/24 01:36:54;;;;;;;3.03;1.38;;;7.60;99.90;;;;;;5041355;28;20067;-75
2024/02/24 01:39:20;;;;;;;0.95;0.90;;;7.60;99.90;;;;;;5036058;28;20880;-76
2024/02/24 01:41:46;;;;;;;1.25;0.90;;;7.60;99.90;;;;;;5050148;28;20486;-75
2024/02/24 01:44:12;;;;;;;3.33;1.13;;;7.70;99.90;;;;;;5037427;28;20032;-76
2024/02/24 01:46:38;;;;;;;2.88;0.90;;;7.80;99.90;;;;;;5055684;28;20115;-75
2024/02/24 01:49:04;;;;;;;1.83;0.73;;;7.80;99.90;;;;;;5056210;28;20052;-76
2024/02/24 01:51:29;;;;;;;1.90;0.82;;;7.80;99.90;;;;;;5054427;28;20025;-76
2024/02/24 01:53:56;;;;;;;2.35;1.27;;;7.80;99.90;;;;;;5055660;28;20459;-74
2024/02/24 01:56:24;;;;;;;1.35;1.10;;;7.80;99.90;;;;;;5042593;28;20458;-76
2024/02/24 01:58:50;;;;;;;2.42;0.80;;;7.80;99.90;;;;;;5055689;28;20057;-75
2024/02/24 02:01:17;;;;;;;1.77;0.88;;;7.80;99.90;;;;;;5055762;28;20417;-75
2024/02/24 02:03:42;;;;;;;3.17;0.90;;;7.80;99.90;;;;;;5054203;28;20045;-72
2024/02/24 02:06:08;;;;;;;0.77;0.73;;;7.80;99.90;;;;;;5055504;28;20513;-75
2024/02/24 02:08:34;;;;;;;2.33;1.00;;;7.70;99.90;;;;;;5042300;28;20486;-74
2024/02/24 02:11:00;;;;;;;2.20;0.80;;;7.80;99.90;;;;;;5048801;28;20025;-75
2024/02/24 02:13:26;;;;;;;1.40;0.70;;;7.80;99.90;;;;;;5049049;28;20021;-74
2024/02/24 02:15:54;;;;;;;1.25;0.75;;;7.80;99.90;;;;;;5048834;28;20035;-76
2024/02/24 02:18:20;;;;;;;1.40;0.75;;;7.80;99.90;;;;;;5036207;28;20021;-73
2024/02/24 02:20:50;;;;;;;1.02;0.90;;;7.80;99.90;;;;;;5055435;28;20485;-73
2024/02/24 02:23:15;;;;;;;1.05;0.70;;;7.70;99.90;;;;;;5041388;28;20018;-75
2024/02/24 02:25:41;;;;;;;1.73;0.77;;;7.70;99.90;;;;;;5042606;28;20150;-75
2024/02/24 02:28:07;;;;;;;2.05;0.60;;;7.80;99.90;;;;;;5055122;28;20462;-75
2024/02/24 02:30:33;;;;;;;1.02;0.63;;;7.80;99.90;;;;;;5055408;28;20083;-76
2024/02/24 02:32:59;;;;;;;1.55;0.82;;;7.70;99.90;;;;;;5055859;28;20032;-75
2024/02/24 02:35:26;;;;;;;2.67;0.70;;;7.70;99.90;;;;;;5055223;28;20100;-75
2024/02/24 02:37:52;;;;;;;0.68;0.50;;;7.80;99.90;;;;;;5040952;28;20030;-75
2024/02/24 02:40:17;;;;;;;1.55;0.60;;;7.80;99.90;;;;;;5042622;28;20489;-73
2024/02/24 02:42:43;;;;;;;1.33;0.60;;;7.80;99.90;;;;;;5054933;28;20048;-75
2024/02/24 02:45:09;;;;;;;0.65;0.60;;;7.80;99.90;;;;;;5055242;28;20525;-75
2024/02/24 02:47:37;;;;;;;1.58;0.70;;;7.90;99.90;;;;;;5054943;28;20025;-75
2024/02/24 02:50:04;;;;;;;1.65;0.73;;;7.80;99.90;;;;;;5055059;28;20460;-76
2024/02/24 02:52:30;;;;;;;0.65;0.60;;;7.80;99.90;;;;;;5054683;28;20021;-76
2024/02/24 02:54:56;;;;;;;3.55;1.30;;;7.70;99.90;;;;;;5054898;28;20100;-73
2024/02/24 02:57:23;;;;;;;1.50;0.80;;;7.80;99.90;;;;;;5054396;28;20386;-73
2024/02/24 02:59:49;;;;;;;0.82;0.60;;;7.80;99.90;;;;;;5046176;28;20053;-73
2024/02/24 03:02:15;;;;;;;0.80;0.80;;;7.90;99.90;;;;;;5050267;28;20103;-74
2024/02/24 03:04:40;;;;;;;0.82;0.80;;;7.90;99.90;;;;;;5054938;28;20040;-74
2024/02/24 03:07:06;;;;;;;2.60;0.77;;;7.90;99.90;;;;;;5038454;28;20044;-75
2024/02/24 03:09:32;;;;;;;1.85;0.95;;;7.90;99.90;;;;;;5033639;28;20533;-75
2024/02/24 03:11:57;;;;;;;1.02;0.75;;;7.90;99.90;;;;;;5050835;28;20053;-74
2024/02/24 03:14:23;;;;;;;1.13;0.88;;;7.90;99.90;;;;;;5045693;28;20469;-71
2024/02/24 03:16:49;;;;;;;2.53;0.90;;;8.00;99.90;;;;;;5034678;28;20025;-73
2024/02/24 03:19:15;;;;;;;1.38;1.05;;;7.90;99.90;;;;;;5043393;28;20390;-75
2024/02/24 03:21:40;;;;;;;1.95;1.02;;;7.90;99.90;;;;;;5054136;28;20386;-75
2024/02/24 03:24:06;;;;;;;0.90;0.75;;;8.00;99.90;;;;;;5040838;28;20193;-75
2024/02/24 03:26:32;;;;;;;3.17;0.95;;;8.00;99.90;;;;;;5053684;28;20029;-75
2024/02/24 03:28:58;;;;;;;1.92;1.15;;;8.10;99.90;;;;;;5040818;28;20056;-69
2024/02/24 03:31:24;;;;;;;4.00;1.40;;;7.90;99.90;;;;;;5054277;28;20481;-72
2024/02/24 03:33:52;;;;;;;1.67;1.20;;;7.90;99.90;;;;;;5054158;28;20071;-72
2024/02/24 03:36:19;;;;;;;1.42;0.95;;;7.90;99.90;;;;;;5040982;28;20024;-74
2024/02/24 03:38:44;;;;;;;2.80;1.02;;;7.90;99.90;;;;;;5038894;28;20043;-69
2024/02/24 03:41:10;;;;;;;1.15;1.05;;;7.80;99.90;;;;;;5054239;28;20025;-75
2024/02/24 03:43:37;;;;;;;3.20;1.30;;;7.80;99.90;;;;;;5053823;28;20055;-75
2024/02/24 03:46:04;;;;;;;4.72;1.40;;;7.80;99.90;;;;;;5053673;28;20036;-76
2024/02/24 03:48:30;;;;;;;1.33;0.90;;;7.80;99.90;;;;;;5054045;28;20032;-73
2024/02/24 03:50:56;;;;;;;1.70;1.00;;;7.80;99.90;;;;;;5040081;28;20371;-76
2024/02/24 03:53:22;;;;;;;2.13;1.20;;;7.90;99.90;;;;;;5042772;28;20450;-75
2024/02/24 03:55:49;;;;;;;1.95;1.20;;;7.90;99.90;;;;;;5053842;28;20079;-75
2024/02/24 03:58:15;;;;;;;2.15;1.30;;;7.80;99.90;;;;;;5044712;28;20368;-76
2024/02/24 04:00:41;;;;;;;1.23;1.13;;;7.90;99.90;;;;;;5049201;28;20474;-75
2024/02/24 04:03:07;;;;;;;1.88;1.42;;;7.90;99.90;;;;;;5044390;28;20094;-76
2024/02/24 04:05:33;;;;;;;1.95;1.10;;;7.80;99.90;;;;;;5035602;28;20406;-71
2024/02/24 04:07:58;;;;;;;2.13;1.73;;;7.90;99.90;;;;;;5053076;28;20019;-73
2024/02/24 04:10:24;;;;;;;4.65;1.40;;;7.90;99.90;;;;;;5053394;28;20028;-76
2024/02/24 04:12:49;;;;;;;2.50;1.20;;;7.90;99.90;;;;;;5053552;28;20018;-76
2024/02/24 04:15:19;;;;;;;1.70;1.30;;;7.80;99.90;;;;;;5053287;28;20438;-75
2024/02/24 04:17:46;;;;;;;5.25;1.55;;;7.80;99.90;;;;;;5052944;28;20504;-76
2024/02/24 04:20:15;;;;;;;2.78;1.42;;;7.80;99.90;;;;;;5052910;28;20465;-75
2024/02/24 04:22:41;;;;;;;2.05;1.60;;;7.70;99.90;;;;;;5043729;28;20113;-76
2024/02/24 04:25:07;;;;;;;3.30;1.77;;;7.80;99.90;;;;;;5033360;28;20092;-76
2024/02/24 04:27:33;;;;;;;4.70;1.60;;;7.70;99.90;;;;;;5043176;28;20024;-76
2024/02/24 04:29:59;;;;;;;2.20;1.85;;;7.80;99.90;;;;;;5049806;28;20665;-75
2024/02/24 04:32:25;;;;;;;3.78;1.83;;;7.80;99.90;;;;;;5033483;28;20474;-76
2024/02/24 04:34:50;;;;;;;2.97;1.98;;;7.70;99.90;;;;;;5032851;28;20474;-76
2024/02/24 04:37:16;;;;;;;4.10;2.05;;;7.80;99.90;;;;;;5042521;28;20478;-74
2024/02/24 04:39:41;;;;;;;2.47;2.05;;;7.70;99.90;;;;;;5052717;28;20377;-74
2024/02/24 04:42:07;;;;;;;3.45;2.22;;;7.70;99.90;;;;;;5051192;28;20362;-76
2024/02/24 04:44:33;;;;;;;3.60;2.38;;;7.80;99.90;;;;;;5040870;28;20174;-75
2024/02/24 04:46:59;;;;;;;5.85;2.30;;;7.80;99.90;;;;;;5040573;28;20028;-76
2024/02/24 04:49:24;;;;;;;5.15;2.38;;;7.80;99.90;;;;;;5048354;28;20025;-75
2024/02/24 04:51:50;;;;;;;5.93;2.33;;;7.80;99.90;;;;;;5051110;28;20566;-75
2024/02/24 04:54:16;;;;;;;2.33;2.13;;;7.80;99.90;;;;;;5052516;28;20025;-75
2024/02/24 04:56:42;;;;;;;4.97;1.90;;;7.80;99.90;;;;;;5052515;28;20017;-73
2024/02/24 04:59:08;;;;;;;4.47;2.30;;;7.90;99.90;;;;;;5052408;28;20072;-72
2024/02/24 05:01:35;;;;;;;2.83;1.90;;;7.90;99.90;;;;;;5051503;28;20469;-76
2024/02/24 05:04:02;;;;;;;6.05;2.35;;;8.00;99.90;;;;;;5052510;28;20469;-75
2024/02/24 05:06:28;;;;;;;2.40;2.00;;;8.00;99.90;;;;;;5033159;28;20144;-69
2024/02/24 05:08:54;;;;;;;4.25;1.98;;;7.90;99.90;;;;;;5051965;28;20036;-76
2024/02/24 05:11:20;;;;;;;2.38;2.00;;;7.90;99.90;;;;;;5052255;28;20112;-75
2024/02/24 05:13:46;;;;;;;3.78;1.95;;;8.00;99.90;;;;;;5052425;28;20097;-76
2024/02/24 05:16:13;;;;;;;3.85;2.42;;;8.00;99.90;;;;;;5050916;28;20452;-76
2024/02/24 05:18:39;;;;;;;3.60;1.35;;;8.00;99.90;;;;;;5051873;28;20104;-75
2024/02/24 05:21:05;;;;;;;3.58;1.50;;;8.00;99.90;;;;;;5052348;28;20048;-76
2024/02/24 05:23:31;;;;;;;1.42;1.33;;;7.90;99.90;;;;;;5052617;28;20053;-77
2024/02/24 05:25:56;;;;;;;2.08;1.30;;;7.80;99.90;;;;;;5051417;28;20060;-76
2024/02/24 05:28:22;;;;;;;3.78;1.58;;;8.00;99.90;;;;;;5050908;28;20500;-76
2024/02/24 05:30:47;;;;;;;2.28;1.23;;;8.00;99.90;;;;;;5051397;28;20055;-72
2024/02/24 05:33:14;;;;;;;2.90;1.40;;;7.90;99.90;;;;;;5052564;28;20112;-74
2024/02/24 05:35:40;;;;;;;2.03;1.40;;;7.90;99.90;;;;;;5052404;28;20034;-76
2024/02/24 05:38:06;;;;;;;3.05;1.40;;;7.90;99.90;;;;;;5052360;28;20025;-76
2024/02/24 05:40:31;;;;;;;1.90;1.10;;;7.90;99.90;;;;;;5052325;28;20381;-76
2024/02/24 05:42:57;;;;;;;2.08;1.35;;;7.80;99.90;;;;;;5052217;28;20029;-75
2024/02/24 05:45:23;;;;;;;2.22;1.50;;;7.80;99.90;;;;;;5051720;28;20025;-74
2024/02/24 05:47:48;;;;;;;1.65;1.10;;;7.90;99.90;;;;;;5050937;28;20025;-76
2024/02/24 05:50:14;;;;;;;1.65;1.48;;;7.90;99.90;;;;;;5052138;28;20516;-76
2024/02/24 05:52:40;;;;;;;1.75;1.50;;;7.90;99.90;;;;;;5052774;28;20074;-76
2024/02/24 05:55:09;;;;;;;1.80;1.48;;;7.80;99.90;;;;;;5052369;28;20078;-77
2024/02/24 05:57:34;;;;;;;3.42;1.42;;;7.70;99.90;;;;;;5051887;28;20013;-76
2024/02/24 06:00:02;;;;;;;2.67;1.48;;;7.60;99.90;;;;;;5051682;28;20025;-76
2024/02/24 06:02:28;;;;;;;2.88;1.55;;;7.70;99.90;;;;;;5051640;28;20067;-75
2024/02/24 06:04:53;;;;;;;3.22;1.27;;;7.70;99.90;;;;;;5051457;28;20142;-73
2024/02/24 06:07:19;;;;;;;2.95;1.50;;;7.70;99.90;;;;;;5050657;28;20032;-75
2024/02/24 06:09:45;;;;;;;2.45;1.60;;;7.70;99.90;;;;;;5050824;28;20028;-75
2024/02/24 06:12:10;;;;;;;1.70;1.17;;;7.70;99.90;;;;;;5051844;28;20100;-76
2024/02/24 06:14:36;;;;;;;1.58;1.38;;;7.80;99.90;;;;;;5051968;28;20021;-77
2024/02/24 06:17:02;;;;;;;3.83;1.67;;;7.80;99.90;;;;;;5051855;28;20093;-77
2024/02/24 06:19:28;;;;;;;3.10;1.55;;;7.80;99.90;;;;;;5051986;28;20025;-74
2024/02/24 06:21:53;;;;;;;2.97;1.65;;;7.80;99.90;;;;;;5051615;28;20100;-76
2024/02/24 06:24:19;;;;;;;1.73;1.42;;;7.80;99.90;;;;;;5052168;28;20515;-77
2024/02/24 06:26:45;;;;;;;2.15;1.70;;;7.80;99.90;;;;;;5033498;28;20043;-75
2024/02/24 06:29:11;;;;;;;3.47;1.42;;;7.80;99.90;;;;;;5029936;28;20021;-76
2024/02/24 06:31:37;;;;;;;4.03;1.77;;;7.90;99.90;;;;;;5037283;28;20029;-76
2024/02/24 06:34:03;;;;;;;2.63;1.83;;;7.90;99.90;;;;;;5035657;28;20071;-76
2024/02/24 06:36:29;;;;;;;2.63;2.40;;;7.70;99.90;;;;;;5035649;28;20456;-76
2024/02/24 06:38:55;;;;;;;3.85;2.00;;;7.80;99.90;;;;;;5034209;28;20022;-76
2024/02/24 06:41:23;;;;;;;5.03;2.20;;;7.80;99.90;;;;;;5035326;28;20101;-76
2024/02/24 06:43:51;;;;;;;4.88;2.28;;;7.80;99.90;;;;;;5034039;28;20124;-76
2024/02/24 06:46:17;;;;;;;2.10;1.90;;;7.70;99.90;;;;;;5033926;28;20036;-76
2024/02/24 06:48:42;;;;;;;3.55;1.52;;;7.60;99.90;;;;;;5033789;28;20032;-76
2024/02/24 06:51:08;;;;;;;4.20;1.80;;;7.60;99.90;;;;;;5035088;28;20029;-75
2024/02/24 06:53:34;;;;;;;2.28;1.35;;;7.60;99.90;;;;;;5050986;28;20032;-71
2024/02/24 06:56:20;;;;;;;2.75;1.65;;;7.60;99.90;;;;;;5048873;28;20021;-81
2024/02/24 06:58:46;;;;;;;2.10;1.73;;;7.60;99.90;;;;;;5034739;28;20022;-82
2024/02/24 07:01:21;;;;;;;1.95;1.20;;;7.70;99.90;;;;;;5033492;28;20014;-82
2024/02/24 07:03:47;;;;;;;3.10;1.40;;;7.60;99.90;;;;;;5050636;28;20497;-81
2024/02/24 07:06:13;;;;;;;1.67;1.38;;;7.70;99.90;;;;;;5053858;28;20048;-78
2024/02/24 07:08:38;;;;;;;3.13;1.40;;;7.80;99.90;;;;;;5055043;28;20021;-82
2024/02/24 07:11:04;;;;;;;2.65;1.17;;;7.70;99.90;;;;;;5050076;28;20013;-82
2024/02/24 07:13:30;;;;;;;2.80;1.50;;;7.60;99.90;;;;;;5045198;28;20028;-83
2024/02/24 07:15:55;;;;;;;1.88;1.00;;;7.60;99.90;;;;;;5054294;28;20027;-82
2024/02/24 07:18:21;;;;;;;2.40;1.70;;;7.60;99.90;;;;;;5043718;28;20466;-81
2024/02/24 07:20:47;;;;;;;1.50;1.40;;;7.70;99.90;;;;;;5037443;28;20474;-81
2024/02/24 07:23:12;;;;;;;1.73;1.00;;;7.80;99.90;;;;;;5047832;28;20037;-82
2024/02/24 07:25:38;;;;;;;2.10;1.20;;;7.70;99.90;;;;;;5052692;28;20029;-83
2024/02/24 07:28:05;;;;;;;2.88;1.27;;;7.50;99.90;;;;;;5036926;28;20095;-82
2024/02/24 07:30:31;;;;;;;1.08;0.80;;;7.60;99.90;;;;;;5054036;28;20017;-81
2024/02/24 07:32:57;;;;;;;1.42;1.20;;;7.50;99.90;;;;;;5053769;28;20489;-81
2024/02/24 07:35:22;;;;;;;1.23;1.02;;;7.50;99.90;;;;;;5053070;28;20224;-80
2024/02/24 07:37:49;;;;;;;1.08;0.90;;;7.50;99.90;;;;;;5050388;28;20033;-80
2024/02/24 07:40:14;;;;;;;1.60;1.10;;;7.40;99.90;;;;;;5048031;28;20083;-80
2024/02/24 07:42:40;;;;;;;2.47;0.95;;;7.50;99.90;;;;;;5051524;28;20466;-80
2024/02/24 07:45:07;;;;;;;2.30;0.80;;;7.50;99.90;;;;;;5042702;28;20037;-80
2024/02/24 07:47:32;;;;;;;3.03;1.30;;;7.50;99.90;;;;;;5045188;28;20550;-80
2024/02/24 07:49:58;;;;;;;1.08;0.90;;;7.50;99.90;;;;;;5053878;28;20100;-76
2024/02/24 07:52:24;;;;;;;2.75;1.23;;;7.60;99.90;;;;;;5053331;28;20485;-75
2024/02/24 07:54:49;;;;;;;4.97;1.00;;;7.60;99.90;;;;;;5052631;28;20359;-75
2024/02/24 07:57:15;;;;;;;3.03;1.30;;;7.40;99.90;;;;;;5052909;28;20028;-76
2024/02/24 07:59:41;;;;;;;2.33;1.50;;;7.40;99.90;;;;;;5053893;28;20036;-75
2024/02/24 08:02:06;;;;;;;2.85;1.13;;;7.20;99.90;;;;;;5053280;28;20104;-75
2024/02/24 08:04:32;;;;;;;1.65;1.40;;;7.20;99.90;;;;;;5052484;28;20067;-74
2024/02/24 08:06:58;;;;;;;1.42;1.30;;;7.10;99.90;;;;;;5034759;28;20057;-75
2024/02/24 08:09:23;;;;;;;2.25;1.80;;;7.10;99.90;;;;;;5049592;28;20394;-74
2024/02/24 08:11:49;;;;;;;2.47;1.77;;;7.10;99.90;;;;;;5046451;28;20037;-75
2024/02/24 08:14:15;;;;;;;2.58;1.90;;;7.10;99.90;;;;;;5034889;28;20017;-75
2024/02/24 08:16:40;;;;;;;5.68;1.48;;;7.20;99.90;;;;;;5043487;28;20044;-75
2024/02/24 08:19:06;;;;;;;1.60;1.40;;;7.10;99.90;;;;;;5053366;28;20028;-75
2024/02/24 08:21:36;;;;;;;3.67;1.63;;;7.20;99.90;;;;;;5053069;28;20505;-72
2024/02/24 08:24:07;;;;;;;3.90;2.00;;;7.20;99.90;;;;;;5052644;28;20017;-74
2024/02/24 08:26:39;;;;;;;2.95;2.20;;;7.20;99.90;;;;;;5040107;28;20111;-75
2024/02/24 08:29:11;;;;;;;3.00;2.28;;;7.20;99.90;;;;;;5039840;28;20020;-75
2024/02/24 08:31:37;;;;;;;3.87;2.40;;;7.30;99.90;;;;;;5052083;28;20035;-74
2024/02/24 08:34:03;;;;;;;3.55;2.63;;;7.30;99.90;;;;;;5052679;28;20037;-74
2024/02/24 08:36:29;;;;;;;3.03;2.25;;;7.30;99.90;;;;;;5052752;28;20500;-74
2024/02/24 08:38:56;;;;;;;4.70;3.13;;;7.40;99.90;;;;;;5040312;28;20029;-75
2024/02/24 08:41:22;;;;;;;4.97;3.10;;;7.40;99.90;;;;;;5048149;28;20359;-74
2024/02/24 08:43:48;;;;;;;4.38;3.03;;;7.40;99.90;;;;;;5052132;28;20470;-73
2024/02/24 08:46:14;;;;;;;3.25;2.78;;;7.50;99.90;;;;;;5040476;28;20120;-73
2024/02/24 08:48:39;;;;;;;3.50;3.20;;;7.40;99.90;;;;;;5051760;28;20459;-73
2024/02/24 08:51:05;;;;;;;6.57;3.65;;;7.40;99.90;;;;;;5052820;28;20032;-73
2024/02/24 08:53:31;;;;;;;3.88;3.22;;;7.50;99.90;;;;;;5052292;28;20053;-73
2024/02/24 08:56:00;;;;;;;5.93;3.10;;;7.50;99.90;;;;;;5052955;28;20025;-73
2024/02/24 08:58:27;;;;;;;4.53;2.90;;;7.50;99.90;;;;;;5045740;28;20032;-73
2024/02/24 09:00:54;;;;;;;5.75;3.17;;;7.60;99.90;;;;;;5048822;28;20031;-74
2024/02/24 09:03:20;;;;;;;5.15;2.63;;;7.70;99.90;;;;;;5044887;28;20473;-72
2024/02/24 09:05:46;;;;;;;3.85;3.10;;;7.60;99.90;;;;;;5051958;28;20432;-74
2024/02/24 09:08:11;;;;;;;4.00;2.88;;;7.60;99.90;;;;;;5052112;28;20025;-73
2024/02/24 09:10:37;;;;;;;4.18;2.90;;;7.60;99.90;;;;;;5051985;28;20024;-74
2024/02/24 09:13:03;;;;;;;6.45;2.58;;;7.60;99.90;;;;;;5040905;28;20094;-74
2024/02/24 09:15:29;;;;;;;4.30;2.50;;;7.60;99.90;;;;;;5047821;28;20039;-73
2024/02/24 09:17:55;;;;;;;5.22;2.85;;;7.50;99.90;;;;;;5052412;28;20051;-73
2024/02/24 09:20:21;;;;;;;3.28;2.75;;;7.60;99.90;;;;;;5037665;28;20518;-74
2024/02/24 09:22:49;;;;;;;4.63;2.60;;;7.60;99.90;;;;;;5051959;28;20018;-74
2024/02/24 09:25:15;;;;;;;4.90;2.40;;;7.70;99.90;;;;;;5049005;28;20414;-75
2024/02/24 09:27:42;;;;;;;3.42;2.78;;;7.80;99.90;;;;;;5032123;28;20029;-75
2024/02/24 09:30:10;;;;;;;5.40;3.25;;;7.90;99.90;;;;;;5047474;28;20493;-75
2024/02/24 09:32:39;;;;;;;4.65;3.20;;;8.10;99.90;;;;;;5052559;28;20029;-76
2024/02/24 09:35:06;;;;;;;4.68;2.70;;;8.20;99.90;;;;;;5048317;28;20067;-76
2024/02/24 09:37:32;;;;;;;6.05;2.63;;;8.20;99.90;;;;;;5038241;28;20032;-75
2024/02/24 09:40:00;;;;;;;5.85;3.35;;;8.20;99.90;;;;;;5031775;28;20488;-76
2024/02/24 09:42:26;;;;;;;8.50;2.63;;;8.40;99.90;;;;;;5039327;28;20064;-76
2024/02/24 09:44:56;;;;;;;5.88;2.33;;;8.30;99.90;;;;;;5050390;28;20032;-76
2024/02/24 09:47:22;;;;;;;2.22;2.03;;;8.30;99.90;;;;;;5050590;28;20029;-77
2024/02/24 09:49:48;;;;;;;4.45;2.95;;;8.40;99.90;;;;;;5048460;28;20679;-74
2024/02/24 09:52:13;;;;;;;5.88;2.90;;;8.40;99.90;;;;;;5041343;28;20504;-77
2024/02/24 09:54:39;;;;;;;8.80;2.75;;;8.40;99.90;;;;;;5039931;28;20028;-76
2024/02/24 09:57:05;;;;;;;3.10;2.28;;;8.20;99.90;;;;;;5046017;28;20386;-76
2024/02/24 09:59:33;;;;;;;6.63;2.30;;;8.20;99.90;;;;;;5041459;28;20017;-80
2024/02/24 10:01:58;;;;;;;6.20;2.90;;;8.20;99.90;;;;;;5048693;28;20118;-77
2024/02/24 10:04:25;;;;;;;4.63;2.20;;;8.20;99.90;;;;;;5050576;28;20076;-72
2024/02/24 10:06:50;;;;;;;3.10;1.80;;;8.20;99.90;;;;;;5053248;28;20477;-77
2024/02/24 10:09:16;;;;;;;2.17;1.98;;;8.20;99.90;;;;;;5055913;28;20108;-75
2024/02/24 10:11:42;;;;;;;5.20;2.58;;;8.40;99.90;;;;;;5055407;28;20351;-75
2024/02/24 10:14:08;;;;;;;3.67;2.30;;;8.70;99.90;;;;;;5055000;28;20477;-79
2024/02/24 10:16:37;;;;;;;4.15;2.10;;;8.90;99.90;;;;;;5055382;28;20497;-80
2024/02/24 10:19:07;;;;;;;3.55;1.95;;;9.10;99.90;;;;;;5055442;28;20028;-78
2024/02/24 10:21:33;;;;;;;6.63;2.08;;;9.40;99.90;;;;;;5055051;28;20021;-80
2024/02/24 10:24:02;;;;;;;3.30;2.13;;;9.40;99.90;;;;;;5055436;28;20021;-81
2024/02/24 10:26:28;;;;;;;4.60;1.90;;;9.40;99.90;;;;;;5052691;28;20037;-83
2024/02/24 10:28:57;;;;;;;2.97;1.42;;;9.30;99.90;;;;;;5033758;28;20109;-70
2024/02/24 10:31:26;;;;;;;6.13;2.05;;;9.20;99.90;;;;;;5036628;28;20025;-75
2024/02/24 10:33:55;;;;;;;6.60;2.50;;;9.00;99.90;;;;;;5043454;28;20044;-78
2024/02/24 10:36:21;;;;;;;5.05;1.95;;;9.10;99.90;;;;;;5053718;28;20393;-84
2024/02/24 10:38:49;;;;;;;4.35;1.95;;;9.20;99.90;;;;;;5055141;28;20596;-80
2024/02/24 10:41:17;;;;;;;7.65;2.20;;;9.20;99.90;;;;;;5054917;28;20025;-77
2024/02/24 10:43:43;;;;;;;3.00;2.15;;;9.10;99.90;;;;;;5041758;28;20075;-79
2024/02/24 10:46:09;;;;;;;4.10;2.10;;;8.90;99.90;;;;;;5053565;28;20029;-79
2024/02/24 10:48:35;;;;;;;6.50;1.83;;;8.90;99.90;;;;;;5036372;28;20083;-79
2024/02/24 10:51:00;;;;;;;4.43;1.80;;;8.90;99.90;;;;;;5034581;28;20030;-84
2024/02/24 10:53:28;;;;;;;12.65;1.88;;;8.80;99.90;;;;;;5034958;28;20021;-83
2024/02/24 10:55:56;;;;;;;6.13;2.08;;;8.80;99.90;;;;;;5047966;28;20078;-82
2024/02/24 10:58:22;;;;;;;7.32;1.90;;;8.80;99.90;;;;;;5041344;28;20100;-82
2024/02/24 11:00:53;;;;;;;6.40;2.08;;;8.90;99.90;;;;;;5041485;28;20144;-81
2024/02/24 11:03:22;;;;;;;2.97;1.90;;;8.80;99.90;;;;;;5041801;28;20065;-80
2024/02/24 11:05:50;;;;;;;2.80;1.38;;;8.60;99.90;;;;;;5053563;28;20035;-80
2024/02/24 11:08:44;;;;;;;5.05;1.60;;;8.50;99.90;;;;;;5054818;28;20102;-84
2024/02/24 11:11:11;;;;;;;4.72;1.17;;;8.50;99.90;;;;;;5039385;28;20642;-82
2024/02/24 11:13:47;;;;;;;6.22;1.20;;;8.40;99.90;;;;;;5052942;28;20017;-82
2024/02/24 11:16:13;;;;;;;3.05;1.40;;;8.50;99.90;;;;;;5053647;28;20490;-83
2024/02/24 11:18:48;;;;;;;3.28;1.10;;;8.60;99.90;;;;;;5052271;28;20159;-84
2024/02/24 11:21:14;;;;;;;2.60;1.00;;;8.90;99.90;;;;;;5040031;28;20029;-83
2024/02/24 11:23:44;;;;;;;5.00;1.30;;;9.10;99.90;;;;;;5048737;28;20024;-83
2024/02/24 11:26:13;;;;;;;4.13;1.50;;;9.20;99.90;;;;;;5053967;28;20076;-83
2024/02/24 11:28:44;;;;;;;2.80;1.20;;;9.20;99.90;;;;;;5053947;28;20021;-83
2024/02/24 11:31:27;;;;;;;2.00;1.40;;;9.20;99.90;;;;;;5054053;28;20025;-82
2024/02/24 11:34:07;;;;;;;4.13;1.30;;;9.30;99.90;;;;;;5052586;28;20021;-80
2024/02/24 11:36:35;;;;;;;4.65;1.20;;;9.40;99.90;;;;;;5041558;28;20033;-83
2024/02/24 11:39:11;;;;;;;3.63;1.35;;;9.50;99.90;;;;;;5052079;28;20024;-82
2024/02/24 11:41:38;;;;;;;2.85;1.00;;;9.50;99.90;;;;;;5053876;28;20040;-83
2024/02/24 11:44:04;;;;;;;3.20;1.42;;;9.30;99.90;;;;;;5054024;28;20024;-81
2024/02/24 11:46:30;;;;;;;6.32;1.63;;;9.30;99.90;;;;;;5051973;28;20041;-83
2024/02/24 11:48:56;;;;;;;4.97;1.77;;;9.30;99.90;;;;;;5040765;28;20028;-81
2024/02/24 11:51:24;;;;;;;3.28;1.45;;;9.20;99.90;;;;;;5053642;28;20036;-82
2024/02/24 11:53:52;;;;;;;5.32;2.33;;;9.20;99.90;;;;;;5053520;28;20370;-82
2024/02/24 11:56:18;;;;;;;3.53;1.70;;;9.10;99.90;;;;;;5051383;28;20025;-83
2024/02/24 11:58:44;;;;;;;4.72;1.20;;;9.10;99.90;;;;;;5053661;28;20033;-82
2024/02/24 12:01:15;;;;;;;5.90;2.08;;;9.10;99.90;;;;;;5052109;28;20061;-81
2024/02/24 12:03:53;;;;;;;4.88;1.60;;;9.10;99.90;;;;;;5051674;28;20029;-79
2024/02/24 12:06:20;;;;;;;2.65;1.33;;;9.00;99.90;;;;;;5052932;28;20029;-78
2024/02/24 12:08:47;;;;;;;2.10;1.00;;;9.10;99.90;;;;;;5053585;28;20029;-77
2024/02/24 12:11:13;;;;;;;4.00;1.35;;;9.10;99.90;;;;;;5052673;28;20078;-78
2024/02/24 12:13:39;;;;;;;3.25;1.67;;;9.10;99.90;;;;;;5053309;28;20493;-77
2024/02/24 12:16:05;;;;;;;2.88;1.30;;;9.00;99.90;;;;;;5033852;28;20018;-77
2024/02/24 12:18:31;;;;;;;6.80;1.88;;;9.00;99.90;;;;;;5041371;28;20033;-79
2024/02/24 12:20:56;;;;;;;2.85;1.27;;;8.90;99.90;;;;;;5050976;28;20435;-79
2024/02/24 12:23:22;;;;;;;2.47;1.23;;;8.90;99.90;;;;;;5035749;28;20026;-77
2024/02/24 12:25:49;;;;;;;3.65;1.23;;;8.70;99.90;;;;;;5034377;28;20379;-77
2024/02/24 12:28:17;;;;;;;4.13;1.30;;;8.60;99.90;;;;;;5039410;28;20086;-80
2024/02/24 12:30:45;;;;;;;2.30;1.10;;;8.70;99.90;;;;;;5043758;28;20039;-81
2024/02/24 12:33:16;;;;;;;4.28;1.30;;;8.80;99.90;;;;;;5050915;28;20378;-82
2024/02/24 12:35:42;;;;;;;3.40;1.17;;;8.70;99.90;;;;;;5041583;28;20036;-83
2024/02/24 12:38:16;;;;;;;3.25;1.63;;;8.80;99.90;;;;;;5036828;28;20036;-80
2024/02/24 12:40:44;;;;;;;1.88;0.80;;;8.70;99.90;;;;;;5042087;28;20485;-81
2024/02/24 12:43:10;;;;;;;3.67;1.50;;;8.80;99.90;;;;;;5050777;28;20462;-81
2024/02/24 12:45:36;;;;;;;4.65;1.38;;;8.60;99.90;;;;;;5039397;28;20541;-82
2024/02/24 12:48:01;;;;;;;3.85;1.30;;;8.70;99.90;;;;;;5038888;28;20192;-80
2024/02/24 12:50:28;;;;;;;2.58;1.08;;;8.80;99.90;;;;;;5049728;28;20459;-83
2024/02/24 12:52:54;;;;;;;3.28;1.40;;;8.80;99.90;;;;;;5047460;28;20037;-80
2024/02/24 12:55:20;;;;;;;4.45;1.40;;;8.70;99.90;;;;;;5048584;28;20094;-82